Weather at San Luis County Regional Airport

Public forecast

Using degrees Fahrenheit for public forecast. Weather courtesy of forecast.io.

Current aviation weather report (METAR) for San Luis County Regional Airport

Retrieved 2021/04/15 16:56 UTC (1 hour ago):

KSBP 151656Z VRB03KT 10SM BR CLR 14/08 A3005 RMK AO2 SLP176 T01390078

Aviation forecast (TAF) for San Luis County Regional Airport

Retrieved 2021/04/15 12:03 UTC (6 hours ago):

TAF COR KSBP 151201Z 1512/1612 VRB03KT P6SM BKN010 FM151500 VRB03KT P6SM SKC FM152000 30012KT P6SM SKC FM160400 VRB03KT P6SM SKC FM160700 VRB03KT P6SM BKN008